Time;durP1;ratioP1;P1;durP2;ratioP2;P2;SDS_P1;SDS_P2;PMS_P1;PMS_P2;Temp;Humidity;BMP_temperature;BMP_pressure;BME280_temperature;BME280_humidity;BME280_pressure;Samples;Min_cycle;Max_cycle;Signal;HPM_P1;HPM_P2
2022/01/13 00:00:27;;;;;;;;;;;;;;;-5.97;100.00;102076.25;5006989;28;19916;-91
2022/01/13 00:02:52;;;;;;;;;;;;;;;-5.99;100.00;102084.66;5027359;28;19972;-91
2022/01/13 00:05:19;;;;;;;;;;;;;;;-5.99;100.00;102084.66;5032500;28;20378;-91
2022/01/13 00:07:44;;;;;;;;;;;;;;;-6.02;100.00;102098.69;5016635;28;19917;-85
2022/01/13 00:10:10;;;;;;;;;;;;;;;-5.99;100.00;102100.06;5025950;28;19955;-85
2022/01/13 00:12:40;;;;;;;;;;;;;;;-6.05;100.00;102104.66;5031400;28;20383;-86
2022/01/13 00:18:01;;;;;;;;;;;;;;;-6.07;100.00;102109.53;4994756;28;19917;-85
2022/01/13 00:20:59;;;;;;;;;;;;;;;-6.10;100.00;102104.66;5022354;28;19976;-85
2022/01/13 00:26:01;;;;;;;;;;;;;;;-6.08;100.00;102105.22;5032982;28;19917;-85
2022/01/13 00:28:27;;;;;;;;;;;;;;;-6.03;100.00;102099.78;5012524;28;20011;-85
2022/01/13 00:30:55;;;;;;;;;;;;;;;-6.14;100.00;102098.19;5021930;28;20481;-85
2022/01/13 00:33:24;;;;;;;;;;;;;;;-6.12;100.00;102101.44;5030100;28;19967;-85
2022/01/13 00:35:50;;;;;;;;;;;;;;;-6.18;100.00;102106.03;5033818;28;19979;-85
2022/01/13 00:38:15;;;;;;;;;;;;;;;-6.25;100.00;102108.22;5003413;28;20370;-85
2022/01/13 00:40:40;;;;;;;;;;;;;;;-6.29;100.00;102104.47;5013618;28;19921;-85
2022/01/13 00:43:06;;;;;;;;;;;;;;;-6.27;100.00;102109.59;5016436;28;19921;-85
2022/01/13 00:45:31;;;;;;;;;;;;;;;-6.28;100.00;102105.28;5031991;28;19925;-91
2022/01/13 00:47:57;;;;;;;;;;;;;;;-6.25;100.00;102102.00;5004418;28;19956;-85
2022/01/13 00:50:22;;;;;;;;;;;;;;;-6.28;100.00;102089.88;5029392;28;21180;-85
2022/01/13 00:52:47;;;;;;;;;;;;;;;-6.30;100.00;102096.63;5019246;28;19933;-84
2022/01/13 00:55:20;;;;;;;;;;;;;;;-6.36;100.00;102105.84;5024077;28;20047;-85
2022/01/13 00:57:45;;;;;;;;;;;;;;;-6.40;100.00;102104.75;5022830;28;20378;-85
2022/01/13 01:00:11;;;;;;;;;;;;;;;-6.42;100.00;102102.31;5031256;28;19924;-85
2022/01/13 01:02:36;;;;;;;;;;;;;;;-6.47;100.00;102107.75;5031040;28;19917;-85
2022/01/13 01:05:02;;;;;;;;;;;;;;;-6.44;100.00;102106.38;5028651;28;20382;-85
2022/01/13 01:07:27;;;;;;;;;;;;;;;-6.48;100.00;102105.31;5019152;28;19917;-85
2022/01/13 01:09:55;;;;;;;;;;;;;;;-6.42;100.00;102101.50;5013685;28;19923;-85
2022/01/13 01:12:20;;;;;;;;;;;;;;;-6.42;100.00;102106.91;5026230;28;19988;-85
2022/01/13 01:14:54;;;;;;;;;;;;;;;-6.48;100.00;102103.44;5014984;28;20000;-83
2022/01/13 01:17:20;;;;;;;;;;;;;;;-6.54;100.00;102114.50;5015300;28;19924;-86
2022/01/13 01:19:48;;;;;;;;;;;;;;;-6.56;100.00;102111.25;5027795;28;19943;-85
2022/01/13 01:27:16;;;;;;;;;;;;;;;-6.51;100.00;102122.06;5022323;28;19952;-91
2022/01/13 01:29:50;;;;;;;;;;;;;;;-6.46;100.00;102113.94;5029568;28;19921;-92
2022/01/13 01:32:17;;;;;;;;;;;;;;;-6.47;100.00;102115.03;5031715;28;19943;-92
2022/01/13 01:37:18;;;;;;;;;;;;;;;-6.52;100.00;102120.44;5025428;28;19923;-91
2022/01/13 01:39:44;;;;;;;;;;;;;;;-6.47;100.00;102125.84;5031389;28;19917;-91
2022/01/13 01:42:10;;;;;;;;;;;;;;;-6.40;100.00;102118.25;5009705;28;19922;-91
2022/01/13 01:44:42;;;;;;;;;;;;;;;-6.31;100.00;102111.22;5004217;28;20000;-85
2022/01/13 01:47:13;;;;;;;;;;;;;;;-6.27;100.00;102115.00;5026731;28;20386;-85
2022/01/13 01:49:42;;;;;;;;;;;;;;;-6.21;100.00;102114.69;5025436;28;19917;-86
2022/01/13 01:52:09;;;;;;;;;;;;;;;-6.17;100.00;102125.75;5029695;28;19917;-85
2022/01/13 01:54:34;;;;;;;;;;;;;;;-6.12;100.00;102123.06;5011051;28;19960;-85
2022/01/13 01:57:00;;;;;;;;;;;;;;;-6.09;100.00;102121.69;5007011;28;19964;-85
2022/01/13 01:59:29;;;;;;;;;;;;;;;-6.11;100.00;102113.88;5011222;28;20020;-85
2022/01/13 02:01:55;;;;;;;;;;;;;;;-6.07;100.00;102114.94;5232861;23;20124;-76
2022/01/13 02:04:21;;;;;;;;;;;;;;;-6.07;100.00;102117.63;5050222;28;19974;-76
2022/01/13 02:06:47;;;;;;;;;;;;;;;-6.05;100.00;102110.06;5049911;28;20355;-76
2022/01/13 02:09:13;;;;;;;;;;;;;;;-6.04;100.00;102114.38;5051476;28;19967;-77
2022/01/13 02:11:48;;;;;;;;;;;;;;;-6.00;100.00;102109.22;5034207;28;20337;-76
2022/01/13 02:16:52;;;;;;;;;;;;;;;-6.11;100.00;102113.88;5046547;28;19924;-76
2022/01/13 02:19:18;;;;;;;;;;;;;;;-6.15;100.00;102112.81;5050886;28;19920;-77
2022/01/13 02:21:43;;;;;;;;;;;;;;;-6.22;100.00;102112.25;5034033;28;20293;-83
2022/01/13 02:24:09;;;;;;;;;;;;;;;-6.29;100.00;102111.75;5051499;28;20011;-83
2022/01/13 02:26:34;;;;;;;;;;;;;;;-6.33;100.00;102106.09;5051409;28;19923;-83
2022/01/13 02:28:59;;;;;;;;;;;;;;;-6.37;100.00;102115.00;5050911;28;19923;-82
2022/01/13 02:31:28;;;;;;;;;;;;;;;-6.41;100.00;102109.34;5051175;28;19912;-83
2022/01/13 02:33:54;;;;;;;;;;;;;;;-6.51;100.00;102113.97;5050304;28;20373;-83
2022/01/13 02:36:20;;;;;;;;;;;;;;;-6.53;100.00;102116.13;5050687;28;19921;-82
2022/01/13 02:38:49;;;;;;;;;;;;;;;-6.52;100.00;102120.44;5051131;28;19970;-83
2022/01/13 02:41:14;;;;;;;;;;;;;;;-6.61;100.00;102110.19;5049911;28;19917;-83
2022/01/13 02:43:40;;;;;;;;;;;;;;;-6.58;100.00;102113.41;5051463;28;19969;-83
2022/01/13 02:49:05;;;;;;;;;;;;;;;-6.63;100.00;102095.38;5049751;28;19960;-83
2022/01/13 02:51:31;;;;;;;;;;;;;;;-6.65;100.00;102098.31;5050282;28;19916;-82
2022/01/13 02:53:56;;;;;;;;;;;;;;;-6.71;100.00;102102.09;5050659;28;20308;-83
2022/01/13 02:56:21;;;;;;;;;;;;;;;-6.72;100.00;102092.41;5032934;28;20332;-83
2022/01/13 02:58:47;;;;;;;;;;;;;;;-6.76;100.00;102085.94;5050917;28;19924;-83
2022/01/13 03:01:12;;;;;;;;;;;;;;;-6.82;100.00;102078.09;5050600;28;19956;-83
2022/01/13 03:03:39;;;;;;;;;;;;;;;-6.80;100.00;102090.25;5057627;28;19924;-82
2022/01/13 03:06:09;;;;;;;;;;;;;;;-6.86;100.00;102095.91;5036441;28;19924;-83
2022/01/13 03:08:35;;;;;;;;;;;;;;;-6.88;100.00;102088.09;5050048;28;19996;-83
2022/01/13 03:11:00;;;;;;;;;;;;;;;-6.84;100.00;102086.47;5050603;28;19924;-82
2022/01/13 03:13:28;;;;;;;;;;;;;;;-6.84;100.00;102081.06;5046540;28;19950;-83
2022/01/13 03:15:54;;;;;;;;;;;;;;;-6.91;100.00;102071.63;5031302;28;19924;-83
2022/01/13 03:18:19;;;;;;;;;;;;;;;-6.89;100.00;102085.66;5046081;28;19916;-83
2022/01/13 03:20:44;;;;;;;;;;;;;;;-6.93;100.00;102082.69;5042942;28;19917;-83
2022/01/13 03:23:15;;;;;;;;;;;;;;;-6.91;100.00;102094.00;5050493;28;19917;-83
2022/01/13 03:25:43;;;;;;;;;;;;;;;-6.90;100.00;102094.81;5050759;28;19928;-83
2022/01/13 03:28:14;;;;;;;;;;;;;;;-6.96;100.00;102094.03;5029846;28;20289;-83
2022/01/13 03:30:40;;;;;;;;;;;;;;;-6.89;100.00;102091.06;5016093;28;19917;-83
2022/01/13 03:33:06;;;;;;;;;;;;;;;-6.89;100.00;102097.25;5061862;28;19916;-83
2022/01/13 03:35:31;;;;;;;;;;;;;;;-6.95;100.00;102100.25;5037925;28;19940;-83
2022/01/13 03:37:58;;;;;;;;;;;;;;;-6.97;100.00;102099.69;5030771;28;19926;-83
2022/01/13 03:40:24;;;;;;;;;;;;;;;-6.97;100.00;102095.09;5036916;28;19921;-83
2022/01/13 03:42:52;;;;;;;;;;;;;;;-6.97;100.00;102097.81;5050338;28;20282;-83
2022/01/13 03:45:18;;;;;;;;;;;;;;;-6.97;100.00;102099.69;5052454;28;19928;-82
2022/01/13 03:47:43;;;;;;;;;;;;;;;-6.95;100.00;102092.94;5054065;28;19912;-83
2022/01/13 03:50:09;;;;;;;;;;;;;;;-6.93;100.00;102093.47;5031004;28;19941;-83
2022/01/13 03:52:34;;;;;;;;;;;;;;;-6.97;100.00;102103.19;5052970;28;19923;-83
2022/01/13 03:55:34;;;;;;;;;;;;;;;-6.98;100.00;102108.84;5045804;28;20738;-83
2022/01/13 03:58:03;;;;;;;;;;;;;;;-7.04;100.00;102105.34;5050948;28;19920;-77
2022/01/13 04:00:46;;;;;;;;;;;;;;;-7.02;100.00;102116.69;5051461;28;19920;-77
2022/01/13 04:03:12;;;;;;;;;;;;;;;-6.99;100.00;102113.44;5019648;28;19921;-76
2022/01/13 04:05:57;;;;;;;;;;;;;;;-6.98;100.00;102114.25;5046770;28;19967;-76
2022/01/13 04:08:22;;;;;;;;;;;;;;;-7.09;100.00;102137.72;5040118;28;19946;-76
2022/01/13 04:10:50;;;;;;;;;;;;;;;-7.13;100.00;102140.16;5051518;28;20432;-77
2022/01/13 04:13:34;;;;;;;;;;;;;;;-7.12;100.00;102135.56;5036035;28;19924;-77
2022/01/13 04:15:59;;;;;;;;;;;;;;;-7.20;100.00;102117.22;5051955;28;19924;-82
2022/01/13 04:18:24;;;;;;;;;;;;;;;-7.17;100.00;102116.66;5046443;28;19923;-83
2022/01/13 04:20:50;;;;;;;;;;;;;;;-7.18;100.00;102117.75;5041926;28;19921;-83
2022/01/13 04:23:15;;;;;;;;;;;;;;;-7.14;100.00;102121.53;5046582;28;19916;-83
2022/01/13 04:25:42;;;;;;;;;;;;;;;-7.11;100.00;102123.69;5053979;28;19924;-83
2022/01/13 04:28:07;;;;;;;;;;;;;;;-7.09;100.00;102116.94;5047247;28;19982;-83
2022/01/13 04:30:47;;;;;;;;;;;;;;;-7.07;100.00;102116.66;5037091;28;20361;-83
2022/01/13 04:33:13;;;;;;;;;;;;;;;-7.07;100.00;102119.34;5053110;28;19916;-83
2022/01/13 04:35:39;;;;;;;;;;;;;;;-7.06;100.00;102107.50;5048410;28;19970;-83
2022/01/13 04:38:05;;;;;;;;;;;;;;;-7.09;100.00;102105.34;5016540;28;20011;-83
2022/01/13 04:40:30;;;;;;;;;;;;;;;-7.08;100.00;102109.66;5046129;28;20460;-83
2022/01/13 04:42:56;;;;;;;;;;;;;;;-7.07;100.00;102121.28;5052365;28;20000;-83
2022/01/13 04:45:22;;;;;;;;;;;;;;;-7.07;100.00;102138.25;5053227;28;19974;-83
2022/01/13 04:47:49;;;;;;;;;;;;;;;-7.16;100.00;102137.19;5049760;28;19921;-83
2022/01/13 04:50:14;;;;;;;;;;;;;;;-7.20;100.00;102101.03;5017839;28;20373;-83
2022/01/13 04:52:40;;;;;;;;;;;;;;;-7.23;100.00;102085.38;5046626;28;19924;-77
2022/01/13 04:55:10;;;;;;;;;;;;;;;-7.27;100.00;102085.09;5038711;28;19917;-83
2022/01/13 04:57:35;;;;;;;;;;;;;;;-7.25;100.00;102084.84;5046537;28;19924;-83
2022/01/13 05:00:02;;;;;;;;;;;;;;;-7.17;100.00;102084.31;5036688;28;19920;-83
2022/01/13 05:02:28;;;;;;;;;;;;;;;-7.18;100.00;102088.88;5039697;28;19923;-83
2022/01/13 05:04:53;;;;;;;;;;;;;;;-7.19;100.00;102103.44;5054005;28;19917;-84
2022/01/13 05:07:18;;;;;;;;;;;;;;;-7.24;100.00;102099.94;5052308;28;19923;-83
2022/01/13 05:09:44;;;;;;;;;;;;;;;-7.23;100.00;102118.53;5052721;28;19916;-83
2022/01/13 05:12:09;;;;;;;;;;;;;;;-7.26;100.00;102131.75;5052101;28;19917;-84
2022/01/13 05:14:35;;;;;;;;;;;;;;;-7.24;100.00;102132.31;5051588;28;19917;-83
2022/01/13 05:17:23;;;;;;;;;;;;;;;-7.23;100.00;102131.22;5055596;28;19917;-83
2022/01/13 05:20:09;;;;;;;;;;;;;;;-7.23;100.00;102101.53;5053651;28;19916;-84
2022/01/13 05:22:34;;;;;;;;;;;;;;;-7.24;100.00;102122.34;5032090;28;19967;-83
2022/01/13 05:25:00;;;;;;;;;;;;;;;-7.24;100.00;102116.13;5032233;28;19953;-83
2022/01/13 05:27:27;;;;;;;;;;;;;;;-7.24;100.00;102116.13;5047870;28;19959;-83
2022/01/13 05:29:52;;;;;;;;;;;;;;;-7.30;100.00;102122.56;5051259;28;19927;-84
2022/01/13 05:32:17;;;;;;;;;;;;;;;-7.26;100.00;102120.97;5055968;28;19921;-77
2022/01/13 05:34:42;;;;;;;;;;;;;;;-7.22;100.00;102111.25;5037142;28;19964;-76
2022/01/13 05:37:08;;;;;;;;;;;;;;;-7.25;100.00;102125.28;5037725;28;19964;-77
2022/01/13 05:39:33;;;;;;;;;;;;;;;-7.24;100.00;102126.91;5043281;28;20027;-77
2022/01/13 05:41:58;;;;;;;;;;;;;;;-7.18;100.00;102129.34;5035093;28;19968;-77
2022/01/13 05:44:24;;;;;;;;;;;;;;;-7.23;100.00;102118.53;5032718;28;19967;-76
2022/01/13 05:46:49;;;;;;;;;;;;;;;-7.28;100.00;102120.44;5048709;28;19923;-76
2022/01/13 05:49:14;;;;;;;;;;;;;;;-7.32;100.00;102112.06;5033017;28;19925;-76
2022/01/13 05:51:40;;;;;;;;;;;;;;;-7.34;100.00;102116.09;5045806;28;20372;-77
2022/01/13 05:54:05;;;;;;;;;;;;;;;-7.30;100.00;102112.59;5047730;28;20331;-76
2022/01/13 05:56:31;;;;;;;;;;;;;;;-7.29;100.00;102119.63;5051787;28;19997;-76
2022/01/13 05:58:56;;;;;;;;;;;;;;;-7.25;100.00;102119.91;5051807;28;19916;-77
2022/01/13 06:01:21;;;;;;;;;;;;;;;-7.18;100.00;102113.16;5049734;28;19928;-77
2022/01/13 06:03:47;;;;;;;;;;;;;;;-7.10;100.00;102106.41;5044181;28;19916;-77
2022/01/13 06:06:12;;;;;;;;;;;;;;;-7.03;100.00;102106.97;5031855;28;20006;-77
2022/01/13 06:08:38;;;;;;;;;;;;;;;-6.95;100.00;102119.13;5031603;28;20401;-77
2022/01/13 06:11:03;;;;;;;;;;;;;;;-6.91;100.00;102121.00;5039619;28;19920;-77
2022/01/13 06:13:28;;;;;;;;;;;;;;;-6.90;100.00;102130.72;5051199;28;19917;-77
2022/01/13 06:15:54;;;;;;;;;;;;;;;-6.93;100.00;102139.34;5049752;28;20270;-77
2022/01/13 06:18:19;;;;;;;;;;;;;;;-6.98;100.00;102125.84;5042781;28;20374;-78
2022/01/13 06:20:44;;;;;;;;;;;;;;;-7.02;100.00;102113.97;5054234;28;19966;-77
2022/01/13 06:23:11;;;;;;;;;;;;;;;-7.02;100.00;102129.34;5051190;28;19923;-77
2022/01/13 06:25:37;;;;;;;;;;;;;;;-7.10;100.00;102125.31;5040269;28;19917;-76
2022/01/13 06:28:03;;;;;;;;;;;;;;;-7.18;100.00;102125.84;5050853;28;20366;-77
2022/01/13 06:30:30;;;;;;;;;;;;;;;-7.21;100.00;102127.19;5032615;28;19916;-76
2022/01/13 06:32:55;;;;;;;;;;;;;;;-7.22;100.00;102116.66;5049446;28;19970;-77
2022/01/13 06:35:20;;;;;;;;;;;;;;;-7.34;100.00;102127.69;5029704;28;19924;-76
2022/01/13 06:37:46;;;;;;;;;;;;;;;-7.32;100.00;102135.53;5049046;28;20015;-76
2022/01/13 06:40:12;;;;;;;;;;;;;;;-7.32;100.00;102130.13;5030245;28;20012;-77
2022/01/13 06:42:37;;;;;;;;;;;;;;;-7.33;100.00;102128.50;5048136;28;19960;-77
2022/01/13 06:45:03;;;;;;;;;;;;;;;-7.29;100.00;102124.19;5047902;28;19955;-76
2022/01/13 06:47:28;;;;;;;;;;;;;;;-7.24;100.00;102113.44;5012235;28;19916;-77
2022/01/13 06:49:54;;;;;;;;;;;;;;;-7.19;100.00;102108.84;5030339;28;19924;-77
2022/01/13 06:52:19;;;;;;;;;;;;;;;-7.16;100.00;102112.91;5048269;28;19967;-77
2022/01/13 06:54:44;;;;;;;;;;;;;;;-7.08;100.00;102112.38;5048473;28;20396;-76
2022/01/13 06:57:10;;;;;;;;;;;;;;;-6.94;100.00;102116.13;5047178;28;20439;-77
2022/01/13 06:59:35;;;;;;;;;;;;;;;-6.80;100.00;102117.22;5046770;28;19921;-77
2022/01/13 07:02:02;;;;;;;;;;;;;;;-6.64;100.00;102109.94;5045518;28;19917;-77
2022/01/13 07:04:27;;;;;;;;;;;;;;;-6.43;100.00;102113.41;5029784;28;20020;-77
2022/01/13 07:06:53;;;;;;;;;;;;;;;-6.22;100.00;102123.06;5048454;28;20425;-77
2022/01/13 07:09:19;;;;;;;;;;;;;;;-5.99;100.00;102127.88;5048679;28;19920;-77
2022/01/13 07:11:44;;;;;;;;;;;;;;;-5.76;100.00;102121.81;5027625;28;19974;-77
2022/01/13 07:14:10;;;;;;;;;;;;;;;-5.41;100.00;102120.00;5030202;28;19987;-77
2022/01/13 07:16:35;;;;;;;;;;;;;;;-5.12;100.00;102115.47;5049596;28;19947;-77
2022/01/13 07:19:02;;;;;;;;;;;;;;;-4.82;100.00;102117.97;5049493;28;19921;-77
2022/01/13 07:21:27;;;;;;;;;;;;;;;-4.59;100.00;102127.22;5053364;28;20003;-77
2022/01/13 07:23:53;;;;;;;;;;;;;;;-4.19;100.00;102127.91;5035610;28;20470;-77
2022/01/13 07:26:19;;;;;;;;;;;;;;;-3.77;100.00;102130.69;5053126;28;19924;-78
2022/01/13 07:28:44;;;;;;;;;;;;;;;-3.34;100.00;102123.34;5050651;28;20369;-77
2022/01/13 07:31:09;;;;;;;;;;;;;;;-2.97;100.00;102125.22;5053334;28;20507;-77
2022/01/13 07:33:35;;;;;;;;;;;;;;;-2.74;100.00;102126.22;5053975;28;19917;-77
2022/01/13 07:36:00;;;;;;;;;;;;;;;-2.52;100.00;102129.13;5053362;28;19924;-77
2022/01/13 07:38:25;;;;;;;;;;;;;;;-2.40;100.00;102124.81;5052734;28;19920;-77
2022/01/13 07:40:51;;;;;;;;;;;;;;;-2.29;100.00;102133.59;5053316;28;19917;-77
2022/01/13 07:43:22;;;;;;;;;;;;;;;-2.16;100.00;102121.94;5052284;28;20713;-78
2022/01/13 07:45:48;;;;;;;;;;;;;;;-2.04;100.00;102124.97;5051064;28;20524;-78
2022/01/13 07:48:13;;;;;;;;;;;;;;;-1.91;100.00;102124.16;5053060;28;20453;-77
2022/01/13 07:50:39;;;;;;;;;;;;;;;-1.79;100.00;102120.13;5052634;28;20019;-78
2022/01/13 07:53:04;;;;;;;;;;;;;;;-1.69;100.00;102123.44;5049961;28;19920;-78
2022/01/13 07:55:30;;;;;;;;;;;;;;;-1.57;100.00;102121.00;5052862;28;20281;-77
2022/01/13 07:57:55;;;;;;;;;;;;;;;-1.39;100.00;102121.16;5052608;28;19950;-77
2022/01/13 08:00:21;;;;;;;;;;;;;;;-1.27;99.14;102114.09;5052510;28;19924;-77
2022/01/13 08:02:46;;;;;;;;;;;;;;;-1.11;98.57;102111.81;5045741;28;19959;-77
2022/01/13 08:05:12;;;;;;;;;;;;;;;-0.96;97.89;102112.25;5039423;28;19924;-77
2022/01/13 08:07:37;;;;;;;;;;;;;;;-0.80;96.01;102117.31;5073889;28;19923;-77
2022/01/13 08:10:03;;;;;;;;;;;;;;;-0.71;95.49;102120.91;5073663;28;20285;-77
2022/01/13 08:12:28;;;;;;;;;;;;;;;-0.63;96.13;102122.91;5073447;28;20353;-77
2022/01/13 08:14:54;;;;;;;;;;;;;;;-0.52;95.14;102121.53;5073335;28;20300;-77
2022/01/13 08:20:03;;;;;;;;;;;;;;;-0.37;94.20;102133.97;5073740;28;20365;-77
2022/01/13 08:22:28;;;;;;;;;;;;;;;-0.34;93.96;102138.78;5039363;28;19912;-77
2022/01/13 08:24:54;;;;;;;;;;;;;;;-0.31;93.85;102149.06;5073744;28;20381;-77
2022/01/13 08:27:19;;;;;;;;;;;;;;;-0.33;94.52;102152.13;5073173;28;19973;-77
2022/01/13 08:29:44;;;;;;;;;;;;;;;-0.31;94.25;102155.31;5073678;28;19917;-77
2022/01/13 08:32:10;;;;;;;;;;;;;;;-0.33;93.90;102152.13;5064077;28;19923;-77
2022/01/13 08:34:35;;;;;;;;;;;;;;;-0.33;93.54;102154.84;5053222;28;20471;-78
2022/01/13 08:37:01;;;;;;;;;;;;;;;-0.21;94.39;102159.72;5053544;28;19932;-77
2022/01/13 08:39:26;;;;;;;;;;;;;;;-0.10;93.26;102156.41;5053269;28;19924;-77
2022/01/13 08:41:51;;;;;;;;;;;;;;;0.02;94.42;102152.28;5054038;28;20354;-78
2022/01/13 08:44:17;;;;;;;;;;;;;;;0.12;93.56;102152.84;5073284;28;19917;-77
2022/01/13 08:46:42;;;;;;;;;;;;;;;0.29;92.74;102157.53;5073206;28;19935;-76
2022/01/13 08:49:09;;;;;;;;;;;;;;;0.39;91.86;102159.97;5072975;28;19946;-77
2022/01/13 08:51:35;;;;;;;;;;;;;;;0.43;91.25;102159.03;5073054;28;19920;-77
2022/01/13 08:54:00;;;;;;;;;;;;;;;0.46;91.92;102161.13;5073217;28;19920;-77
2022/01/13 08:56:26;;;;;;;;;;;;;;;0.53;91.65;102163.38;5054917;28;19922;-77
2022/01/13 08:58:51;;;;;;;;;;;;;;;0.59;91.15;102161.31;5072804;28;19955;-77
2022/01/13 09:01:16;;;;;;;;;;;;;;;0.64;91.16;102169.34;5072212;28;19926;-77
2022/01/13 09:03:42;;;;;;;;;;;;;;;0.65;90.79;102160.81;5072124;28;19916;-87
2022/01/13 09:06:07;;;;;;;;;;;;;;;0.71;90.13;102159.56;5078731;28;19986;-87
2022/01/13 09:08:33;;;;;;;;;;;;;;;0.61;90.29;102173.50;5097482;28;19916;-88
2022/01/13 09:10:59;;;;;;;;;;;;;;;0.63;91.20;102162.28;5097429;28;19924;-86
2022/01/13 09:13:25;;;;;;;;;;;;;;;0.67;91.00;102169.53;5096777;28;19927;-87
2022/01/13 09:15:57;;;;;;;;;;;;;;;0.76;90.75;102175.00;5079215;28;19913;-88
2022/01/13 09:20:57;;;;;;;;;;;;;;;0.99;90.28;102181.13;5073213;28;19960;-77
2022/01/13 09:23:22;;;;;;;;;;;;;;;1.10;90.20;102172.28;5072449;28;20435;-78
2022/01/13 09:25:48;;;;;;;;;;;;;;;1.18;90.43;102168.75;5072104;28;19918;-77
2022/01/13 09:28:13;;;;;;;;;;;;;;;1.34;89.19;102172.59;5072362;28;19948;-78
2022/01/13 09:30:39;;;;;;;;;;;;;;;1.47;88.28;102162.63;5072165;28;20285;-77
2022/01/13 09:33:05;;;;;;;;;;;;;;;1.46;88.14;102173.91;5054416;28;20004;-78
2022/01/13 09:35:30;;;;;;;;;;;;;;;1.40;87.58;102170.53;5052088;28;20328;-78
2022/01/13 09:37:55;;;;;;;;;;;;;;;1.41;87.78;102166.66;5052380;28;19924;-78
2022/01/13 09:40:21;;;;;;;;;;;;;;;1.33;87.18;102171.03;5051578;28;20433;-78
2022/01/13 09:42:46;;;;;;;;;;;;;;;1.28;87.79;102162.16;5051916;28;19920;-78
2022/01/13 09:45:13;;;;;;;;;;;;;;;1.31;87.70;102166.97;5051727;28;19970;-77
2022/01/13 09:47:39;;;;;;;;;;;;;;;1.27;87.48;102157.81;5051708;28;20329;-78
2022/01/13 09:50:09;;;;;;;;;;;;;;;1.39;86.95;102152.50;5051454;28;19924;-77
2022/01/13 09:52:34;;;;;;;;;;;;;;;1.59;87.15;102160.03;5051980;28;20352;-77
2022/01/13 09:55:00;;;;;;;;;;;;;;;1.67;86.57;102151.00;5051591;28;19955;-78
2022/01/13 09:57:25;;;;;;;;;;;;;;;1.87;86.11;102146.75;5051362;28;19948;-77
2022/01/13 09:59:51;;;;;;;;;;;;;;;1.98;84.92;102136.28;5051652;28;19916;-78
2022/01/13 10:02:16;;;;;;;;;;;;;;;2.12;83.29;102139.56;5051676;28;19917;-77
2022/01/13 10:04:45;;;;;;;;;;;;;;;2.20;83.67;102133.25;5070466;28;19963;-78
2022/01/13 10:07:13;;;;;;;;;;;;;;;2.24;82.60;102131.47;5071676;28;20695;-77
2022/01/13 10:09:54;;;;;;;;;;;;;;;2.29;82.85;102128.56;5071493;28;19926;-78
2022/01/13 10:12:27;;;;;;;;;;;;;;;2.40;82.26;102123.47;5071377;28;19920;-78
2022/01/13 10:17:48;;;;;;;;;;;;;;;2.61;80.82;102114.19;5049145;28;19916;-87
2022/01/13 10:20:14;;;;;;;;;;;;;;;2.58;80.64;102109.38;5048679;28;20357;-87
2022/01/13 10:22:39;;;;;;;;;;;;;;;2.66;81.06;102108.50;5032698;28;19920;-87
2022/01/13 10:25:04;;;;;;;;;;;;;;;2.76;80.89;102099.88;5049710;28;19920;-88
2022/01/13 10:27:34;;;;;;;;;;;;;;;2.85;80.14;102104.47;5050077;28;19912;-87
2022/01/13 10:30:00;;;;;;;;;;;;;;;2.89;79.86;102110.91;5050058;28;19994;-87
2022/01/13 10:32:33;;;;;;;;;;;;;;;2.83;79.78;102108.34;5026881;28;19916;-87
2022/01/13 10:35:00;;;;;;;;;;;;;;;2.92;79.83;102115.72;5050261;28;19923;-87
2022/01/13 10:37:30;;;;;;;;;;;;;;;3.01;79.04;102102.75;5049958;28;20043;-78
2022/01/13 10:39:57;;;;;;;;;;;;;;;3.03;78.33;102105.97;5031863;28;19917;-78
2022/01/13 10:45:04;;;;;;;;;;;;;;;3.24;78.26;102103.97;5051028;28;19920;-77
2022/01/13 10:47:32;;;;;;;;;;;;;;;3.26;77.76;102086.06;5051054;28;19916;-79
2022/01/13 10:50:05;;;;;;;;;;;;;;;3.33;78.02;102082.75;5033797;28;19923;-78
2022/01/13 10:52:30;;;;;;;;;;;;;;;3.44;77.08;102094.91;5033328;28;19917;-78
2022/01/13 10:54:56;;;;;;;;;;;;;;;3.50;76.39;102099.03;5032272;28;20427;-79
2022/01/13 10:57:22;;;;;;;;;;;;;;;3.67;76.19;102098.06;5050929;28;19925;-87
2022/01/13 10:59:48;;;;;;;;;;;;;;;3.91;75.77;102092.59;5051586;28;19917;-88
2022/01/13 11:02:13;;;;;;;;;;;;;;;3.98;74.13;102106.56;5063256;28;19995;-87
2022/01/13 11:04:39;;;;;;;;;;;;;;;3.98;73.41;102103.00;5068911;28;19916;-88
2022/01/13 11:07:12;;;;;;;;;;;;;;;3.96;74.12;102102.56;5051030;28;19924;-88
2022/01/13 11:09:42;;;;;;;;;;;;;;;3.87;73.65;102101.84;5051062;28;19917;-88
2022/01/13 11:12:07;;;;;;;;;;;;;;;3.78;73.84;102103.88;5051534;28;19927;-88
2022/01/13 11:14:40;;;;;;;;;;;;;;;3.67;74.58;102104.34;5033453;28;19917;-87
2022/01/13 11:17:06;;;;;;;;;;;;;;;3.81;74.73;102101.25;5051219;28;19917;-87
2022/01/13 11:19:31;;;;;;;;;;;;;;;3.92;74.06;102096.16;5050486;28;20400;-87
2022/01/13 11:21:56;;;;;;;;;;;;;;;3.97;74.15;102093.97;5033369;28;19913;-87
2022/01/13 11:24:22;;;;;;;;;;;;;;;3.89;73.89;102089.38;5050520;28;19917;-87
2022/01/13 11:26:47;;;;;;;;;;;;;;;3.85;74.40;102095.88;5050162;28;19921;-87
2022/01/13 11:29:13;;;;;;;;;;;;;;;3.84;74.23;102091.56;5028362;28;19917;-87
2022/01/13 11:31:38;;;;;;;;;;;;;;;3.84;74.07;102091.56;5047417;28;19924;-87
2022/01/13 11:34:03;;;;;;;;;;;;;;;3.58;74.11;102089.91;5049002;28;19917;-87
2022/01/13 11:36:29;;;;;;;;;;;;;;;3.58;74.52;102084.44;5049237;28;19920;-78
2022/01/13 11:38:54;;;;;;;;;;;;;;;3.66;74.91;102074.50;5049177;28;19920;-78
2022/01/13 11:41:19;;;;;;;;;;;;;;;3.89;75.40;102070.16;5048899;28;19921;-78
2022/01/13 11:43:45;;;;;;;;;;;;;;;4.12;73.36;102060.34;5049029;28;19923;-78
2022/01/13 11:46:18;;;;;;;;;;;;;;;4.26;73.45;102065.47;5049263;28;20305;-78
2022/01/13 11:49:02;;;;;;;;;;;;;;;4.46;72.54;102066.47;5048998;28;19962;-78
2022/01/13 11:51:39;;;;;;;;;;;;;;;4.54;71.71;102079.28;5048457;28;19986;-78
2022/01/13 11:54:05;;;;;;;;;;;;;;;4.61;71.29;102071.25;5047997;28;19917;-78
2022/01/13 11:56:30;;;;;;;;;;;;;;;4.52;70.06;102079.63;5048607;28;19917;-79
2022/01/13 11:58:56;;;;;;;;;;;;;;;4.35;70.90;102068.88;5049110;28;19920;-78
2022/01/13 12:01:22;;;;;;;;;;;;;;;4.22;71.76;102070.03;5048438;28;19928;-78
2022/01/13 12:04:06;;;;;;;;;;;;;;;4.20;72.01;102066.84;5031187;28;20392;-78
2022/01/13 12:06:39;;;;;;;;;;;;;;;4.11;72.22;102066.16;5051149;28;20293;-78
2022/01/13 12:09:06;;;;;;;;;;;;;;;3.99;71.79;102066.97;5052878;28;19921;-78
2022/01/13 12:11:46;;;;;;;;;;;;;;;3.85;72.29;102062.94;5052162;28;19944;-78
2022/01/13 12:14:27;;;;;;;;;;;;;;;4.03;73.20;102056.09;5052463;28;19921;-78
2022/01/13 12:16:58;;;;;;;;;;;;;;;4.07;71.55;102054.28;5052541;28;20336;-78
2022/01/13 12:19:34;;;;;;;;;;;;;;;3.92;72.81;102050.28;5052046;28;19962;-78
2022/01/13 12:22:03;;;;;;;;;;;;;;;4.12;72.08;102054.03;5050376;28;19924;-78
2022/01/13 12:24:47;;;;;;;;;;;;;;;4.17;72.44;102051.03;5051558;28;19966;-78
2022/01/13 12:27:12;;;;;;;;;;;;;;;4.36;72.71;102043.03;5034417;28;20393;-78
2022/01/13 12:29:48;;;;;;;;;;;;;;;4.42;71.89;102044.38;5052286;28;19984;-77
2022/01/13 12:32:16;;;;;;;;;;;;;;;4.32;71.41;102044.88;5034662;28;19924;-78
2022/01/13 12:34:43;;;;;;;;;;;;;;;4.36;71.55;102032.03;5051743;28;20361;-78
2022/01/13 12:37:11;;;;;;;;;;;;;;;4.36;71.98;102045.78;5034061;28;19931;-78
2022/01/13 12:39:40;;;;;;;;;;;;;;;4.15;71.88;102042.34;5046379;28;19971;-78
2022/01/13 12:42:12;;;;;;;;;;;;;;;4.22;72.73;102040.63;5050212;28;20370;-77
2022/01/13 12:47:26;;;;;;;;;;;;;;;4.35;71.11;102040.63;5031002;28;19916;-78
2022/01/13 12:49:52;;;;;;;;;;;;;;;4.31;71.20;102039.69;5033053;28;19913;-77
2022/01/13 12:52:24;;;;;;;;;;;;;;;4.27;70.58;102036.84;5046939;28;19924;-78
2022/01/13 12:54:50;;;;;;;;;;;;;;;4.13;71.03;102028.97;5031624;28;19925;-77
2022/01/13 12:57:16;;;;;;;;;;;;;;;3.97;71.37;102027.25;5049840;28;19917;-77
2022/01/13 12:59:41;;;;;;;;;;;;;;;3.99;72.01;102030.47;5034371;28;20015;-77
2022/01/13 13:02:07;;;;;;;;;;;;;;;4.17;71.94;102020.81;5050478;28;20020;-78
2022/01/13 13:04:36;;;;;;;;;;;;;;;4.37;71.40;102022.63;5050456;28;20007;-77